Time;durP1;ratioP1;P1;durP2;ratioP2;P2;SDS_P1;SDS_P2;PMS_P1;PMS_P2;Temp;Humidity;BMP_temperature;BMP_pressure;BME280_temperature;BME280_humidity;BME280_pressure;Samples;Min_cycle;Max_cycle;Signal;HPM_P1;HPM_P2
2023/09/12 00:00:05;;;;;;;;;;;;;;;29.48;38.53;94032.22;4952360;28;7222;-60
2023/09/12 00:02:40;;;;;;;;;;;;;;;29.46;39.02;94020.94;4948615;28;7263;-61
2023/09/12 00:05:07;;;;;;;;;;;;;;;29.47;38.74;94022.44;4940482;28;7001;-61
2023/09/12 00:08:00;;;;;;;;;;;;;;;29.47;39.68;94023.16;4935377;28;7254;-61
2023/09/12 00:10:29;;;;;;;;;;;;;;;29.43;39.17;94020.00;4936365;28;8752;-61
2023/09/12 00:12:58;;;;;;;;;;;;;;;29.45;39.30;94019.47;4942439;28;7365;-61
2023/09/12 00:16:05;;;;;;;;;;;;;;;29.46;38.67;94020.94;4951082;28;8921;-60
2023/09/12 00:19:01;;;;;;;;;;;;;;;29.44;38.57;94012.44;4945277;28;6966;-60
2023/09/12 00:21:28;;;;;;;;;;;;;;;29.43;39.20;94010.94;4881898;29;8132;-60
2023/09/12 00:24:05;;;;;;;;;;;;;;;29.42;39.48;94013.00;4887862;29;7402;-60
2023/09/12 00:26:40;;;;;;;;;;;;;;;29.40;38.55;94006.50;4895051;29;7023;-60
2023/09/12 00:29:20;;;;;;;;;;;;;;;29.37;39.07;94007.59;4922584;28;7209;-60
2023/09/12 00:31:56;;;;;;;;;;;;;;;29.40;39.71;94014.81;4935193;28;7597;-60
2023/09/12 00:34:25;;;;;;;;;;;;;;;29.38;39.21;94011.84;4936390;28;7036;-64
2023/09/12 00:37:02;;;;;;;;;;;;;;;29.37;39.05;94007.59;4953762;28;9053;-64
2023/09/12 00:39:30;;;;;;;;;;;;;;;29.38;38.46;94009.09;4952111;28;9311;-64
2023/09/12 00:42:16;;;;;;;;;;;;;;;29.39;38.69;94013.31;4943794;28;8836;-64
2023/09/12 00:45:30;;;;;;;;;;;;;;;29.38;39.45;94014.63;4937864;28;7977;-64
2023/09/12 00:48:26;;;;;;;;;;;;;;;29.36;38.92;94006.13;4859964;29;8661;-64
2023/09/12 00:51:22;;;;;;;;;;;;;;;29.35;38.45;94016.47;4853145;29;7204;-64
2023/09/12 00:53:49;;;;;;;;;;;;;;;29.37;39.28;94021.44;4813778;29;7005;-64
2023/09/12 00:56:30;;;;;;;;;;;;;;;29.38;39.01;94017.41;4826998;29;7195;-64
2023/09/12 00:59:17;;;;;;;;;;;;;;;29.37;38.25;94010.34;4832426;29;7289;-64
2023/09/12 01:02:08;;;;;;;;;;;;;;;29.37;38.64;94024.97;4841045;29;6987;-64
2023/09/12 01:04:49;;;;;;;;;;;;;;;29.37;39.00;94019.41;4839649;29;7269;-64
2023/09/12 01:07:20;;;;;;;;;;;;;;;29.36;38.44;94026.22;4838834;29;8852;-64
2023/09/12 01:10:00;;;;;;;;;;;;;;;29.36;38.80;94025.50;4846063;29;7051;-64
2023/09/12 01:12:36;;;;;;;;;;;;;;;29.34;39.25;94025.31;4821847;29;7205;-64
2023/09/12 01:15:20;;;;;;;;;;;;;;;29.33;38.26;94026.59;4844309;29;9145;-64
2023/09/12 01:17:47;;;;;;;;;;;;;;;29.30;39.21;94017.34;4840763;29;7143;-64
2023/09/12 01:20:29;;;;;;;;;;;;;;;29.30;39.33;94024.91;4849531;29;6997;-64
2023/09/12 01:23:48;;;;;;;;;;;;;;;29.31;39.48;94026.41;4840107;29;7428;-65
2023/09/12 01:30:04;;;;;;;;;;;;;;;29.28;39.49;94025.44;4958380;28;7419;-65
2023/09/12 01:32:40;;;;;;;;;;;;;;;29.29;39.10;94024.19;5012055;28;7988;-64
2023/09/12 01:35:32;;;;;;;;;;;;;;;29.29;38.24;94026.19;5007151;28;7187;-64
2023/09/12 01:38:01;;;;;;;;;;;;;;;29.28;38.67;94033.00;5019074;28;7827;-65
2023/09/12 01:40:51;;;;;;;;;;;;;;;29.28;38.89;94036.53;5018648;28;9049;-64
2023/09/12 01:43:21;;;;;;;;;;;;;;;29.25;38.52;94034.13;5030915;28;7211;-64
2023/09/12 01:45:56;;;;;;;;;;;;;;;29.26;38.88;94027.28;5034701;28;7002;-65
2023/09/12 01:48:33;;;;;;;;;;;;;;;29.27;38.74;94031.53;5015151;28;9346;-64
2023/09/12 01:51:02;;;;;;;;;;;;;;;29.28;38.62;94038.56;5030660;28;7139;-64
2023/09/12 01:53:36;;;;;;;;;;;;;;;29.26;39.02;94041.88;5023588;28;9193;-64
2023/09/12 01:56:22;;;;;;;;;;;;;;;29.26;38.68;94041.88;5024412;28;7012;-64
2023/09/12 01:59:08;;;;;;;;;;;;;;;29.25;38.15;94029.31;5029277;28;7282;-64
2023/09/12 02:01:41;;;;;;;;;;;;;;;29.25;38.63;94043.19;5026540;28;7152;-64
2023/09/12 02:04:09;;;;;;;;;;;;;;;29.24;38.03;94038.16;5034168;28;7776;-64
2023/09/12 02:06:38;;;;;;;;;;;;;;;29.22;39.02;94035.19;5018932;28;6993;-64
2023/09/12 02:09:04;;;;;;;;;;;;;;;29.18;38.70;94035.56;5029363;28;7010;-64
2023/09/12 02:11:32;;;;;;;;;;;;;;;29.22;38.84;94046.28;5032206;28;8733;-64
2023/09/12 02:14:04;;;;;;;;;;;;;;;29.23;38.94;94042.22;5008450;28;7236;-64
2023/09/12 02:16:45;;;;;;;;;;;;;;;29.21;39.50;94048.28;5033487;28;7789;-64
2023/09/12 02:19:12;;;;;;;;;;;;;;;29.22;38.64;94044.25;5033695;28;7634;-64
2023/09/12 02:21:56;;;;;;;;;;;;;;;29.21;38.53;94039.28;5023065;28;7268;-64
2023/09/12 02:24:23;;;;;;;;;;;;;;;29.20;38.55;94043.31;5035540;28;6967;-64
2023/09/12 02:27:03;;;;;;;;;;;;;;;29.19;38.57;94034.25;5028971;28;8379;-64
2023/09/12 02:29:49;;;;;;;;;;;;;;;29.22;38.98;94040.72;5033303;28;6988;-64
2023/09/12 02:32:15;;;;;;;;;;;;;;;29.20;38.64;94037.78;5029214;28;8969;-64
2023/09/12 02:34:41;;;;;;;;;;;;;;;29.17;39.33;94033.34;5025890;28;7047;-64
2023/09/12 02:37:09;;;;;;;;;;;;;;;29.18;38.56;94037.56;5015642;28;7069;-64
2023/09/12 02:39:46;;;;;;;;;;;;;;;29.15;38.43;94038.63;5036315;28;8197;-64
2023/09/12 02:42:18;;;;;;;;;;;;;;;29.15;38.37;94031.06;4996166;28;9220;-64
2023/09/12 02:44:47;;;;;;;;;;;;;;;29.17;39.11;94034.06;5032575;28;7004;-64
2023/09/12 02:47:20;;;;;;;;;;;;;;;29.16;38.70;94032.59;5030328;28;6977;-64
2023/09/12 02:50:04;;;;;;;;;;;;;;;29.17;38.27;94036.09;5031323;28;7270;-64
2023/09/12 02:52:30;;;;;;;;;;;;;;;29.18;38.54;94034.81;5030694;28;7075;-64
2023/09/12 02:54:58;;;;;;;;;;;;;;;29.17;38.79;94027.78;5041322;28;9109;-64
2023/09/12 02:57:34;;;;;;;;;;;;;;;29.15;38.94;94019.97;5032075;28;7237;-64
2023/09/12 03:00:26;;;;;;;;;;;;;;;29.19;38.64;94025.22;5016788;28;7246;-65
2023/09/12 03:03:09;;;;;;;;;;;;;;;29.13;39.44;94021.81;4984109;28;9735;-65
2023/09/12 03:06:12;;;;;;;;;;;;;;;29.15;38.73;94033.06;4977475;28;8647;-65
2023/09/12 03:08:51;;;;;;;;;;;;;;;29.15;38.81;94028.28;4991625;28;7266;-65
2023/09/12 03:11:36;;;;;;;;;;;;;;;29.15;38.50;94019.97;4977366;28;7341;-65
2023/09/12 03:14:04;;;;;;;;;;;;;;;29.15;39.04;94025.53;4973066;28;9173;-64
2023/09/12 03:16:47;;;;;;;;;;;;;;;29.12;39.22;94029.38;4972875;28;7308;-65
2023/09/12 03:19:23;;;;;;;;;;;;;;;29.12;39.27;94021.09;4975054;28;8182;-64
2023/09/12 03:22:13;;;;;;;;;;;;;;;29.15;38.71;94027.53;4992781;28;7262;-65
2023/09/12 03:24:58;;;;;;;;;;;;;;;29.15;38.92;94022.00;4998830;28;7079;-65
2023/09/12 03:27:58;;;;;;;;;;;;;;;29.17;38.28;94027.78;4984040;28;7443;-65
2023/09/12 03:30:35;;;;;;;;;;;;;;;29.14;39.47;94024.03;4978382;28;7341;-65
2023/09/12 03:33:01;;;;;;;;;;;;;;;29.13;38.61;94022.56;4980490;28;9360;-65
2023/09/12 03:35:33;;;;;;;;;;;;;;;29.10;39.28;94024.38;4971466;28;7265;-65
2023/09/12 03:38:00;;;;;;;;;;;;;;;29.08;39.56;94015.88;4982229;28;8952;-65
2023/09/12 03:40:29;;;;;;;;;;;;;;;29.13;39.25;94021.81;5007547;28;7050;-65
2023/09/12 03:43:02;;;;;;;;;;;;;;;29.12;39.43;94015.53;5036254;28;7051;-65
2023/09/12 03:45:30;;;;;;;;;;;;;;;29.12;38.72;94026.63;5013528;28;9554;-65
2023/09/12 03:48:04;;;;;;;;;;;;;;;29.12;38.32;94020.34;5023031;28;7601;-65
2023/09/12 03:50:31;;;;;;;;;;;;;;;29.10;39.52;94015.34;5027714;28;9458;-65
2023/09/12 03:52:57;;;;;;;;;;;;;;;29.10;39.12;94010.53;5011269;28;7221;-65
2023/09/12 03:55:24;;;;;;;;;;;;;;;29.09;39.16;94014.59;5033076;28;7008;-65
2023/09/12 03:57:53;;;;;;;;;;;;;;;29.06;39.08;94012.16;5018675;28;7071;-65
2023/09/12 04:00:19;;;;;;;;;;;;;;;29.09;38.90;94011.81;5028676;28;7477;-65
2023/09/12 04:02:46;;;;;;;;;;;;;;;29.09;38.77;94020.13;5027495;28;7417;-65
2023/09/12 04:05:26;;;;;;;;;;;;;;;29.07;38.78;94017.16;5019107;28;7285;-61
2023/09/12 04:08:18;;;;;;;;;;;;;;;29.07;38.73;94025.47;5019581;28;7108;-61
2023/09/12 04:10:52;;;;;;;;;;;;;;;29.08;38.71;94026.19;5028176;28;6989;-61
2023/09/12 04:13:23;;;;;;;;;;;;;;;29.03;39.05;94018.78;5015389;28;7274;-60
2023/09/12 04:16:07;;;;;;;;;;;;;;;29.03;38.38;94019.53;5018103;28;7219;-61
2023/09/12 04:18:38;;;;;;;;;;;;;;;29.04;38.85;94029.31;5027386;28;7227;-61
2023/09/12 04:21:06;;;;;;;;;;;;;;;29.05;38.67;94021.75;5027724;28;9268;-61
2023/09/12 04:23:51;;;;;;;;;;;;;;;29.04;39.02;94015.47;5031198;28;7259;-61
2023/09/12 04:26:29;;;;;;;;;;;;;;;29.04;38.79;94021.00;5013149;28;7832;-61
2023/09/12 04:29:12;;;;;;;;;;;;;;;29.01;39.18;94013.78;5013941;28;8789;-61
2023/09/12 04:31:59;;;;;;;;;;;;;;;29.01;38.73;94015.81;5010666;28;7302;-61
2023/09/12 04:35:00;;;;;;;;;;;;;;;29.00;38.24;94014.34;5030683;28;7258;-62
2023/09/12 04:37:36;;;;;;;;;;;;;;;28.99;38.99;94023.94;5002530;28;7275;-62
2023/09/12 04:40:13;;;;;;;;;;;;;;;28.96;38.30;94014.69;5006872;28;9159;-62
2023/09/12 04:43:08;;;;;;;;;;;;;;;29.01;38.38;94016.56;5013682;28;7153;-61
2023/09/12 04:45:37;;;;;;;;;;;;;;;29.00;38.13;94015.09;4921836;28;7017;-61
2023/09/12 04:48:20;;;;;;;;;;;;;;;28.98;38.43;94017.66;4926702;29;7397;-61
2023/09/12 04:50:50;;;;;;;;;;;;;;;28.98;38.40;94020.41;4911965;29;8804;-61
2023/09/12 04:53:17;;;;;;;;;;;;;;;28.94;38.26;94022.78;4916762;29;7047;-61
2023/09/12 04:55:45;;;;;;;;;;;;;;;28.90;38.97;94016.84;4915991;29;6990;-62
2023/09/12 04:58:11;;;;;;;;;;;;;;;28.91;39.77;94018.31;4931198;29;7439;-61
2023/09/12 05:00:40;;;;;;;;;;;;;;;28.90;40.93;94030.69;4935743;28;6955;-61
2023/09/12 05:03:06;;;;;;;;;;;;;;;28.93;40.35;94029.59;4935237;28;6993;-61
2023/09/12 05:05:37;;;;;;;;;;;;;;;28.92;41.22;94033.66;4932631;28;7278;-61
2023/09/12 05:08:39;;;;;;;;;;;;;;;28.93;39.83;94037.16;4934489;29;7745;-61
2023/09/12 05:11:05;;;;;;;;;;;;;;;28.92;40.15;94035.69;4933331;29;7491;-61
2023/09/12 05:13:59;;;;;;;;;;;;;;;28.92;40.62;94030.91;4946290;28;8731;-61
2023/09/12 05:16:36;;;;;;;;;;;;;;;28.90;40.54;94039.00;4934710;28;7246;-63
2023/09/12 05:19:14;;;;;;;;;;;;;;;28.90;40.33;94033.47;4946014;28;7265;-63
2023/09/12 05:21:42;;;;;;;;;;;;;;;28.88;40.09;94030.47;4983459;28;7091;-64
2023/09/12 05:24:18;;;;;;;;;;;;;;;28.87;40.01;94034.53;5014107;28;7238;-64
2023/09/12 05:26:47;;;;;;;;;;;;;;;28.86;39.22;94030.28;5029230;28;7001;-63
2023/09/12 05:29:28;;;;;;;;;;;;;;;28.88;39.51;94032.53;5033675;28;7176;-63
2023/09/12 05:32:08;;;;;;;;;;;;;;;28.84;39.45;94026.59;5035581;28;7150;-64
2023/09/12 05:34:42;;;;;;;;;;;;;;;28.83;39.28;94036.91;5013830;28;7204;-63
2023/09/12 05:37:11;;;;;;;;;;;;;;;28.84;38.83;94037.66;5015497;28;7021;-63
2023/09/12 05:39:37;;;;;;;;;;;;;;;28.86;39.36;94043.41;5033914;28;7263;-63
2023/09/12 05:42:20;;;;;;;;;;;;;;;28.85;38.76;94039.13;5012343;28;8843;-63
2023/09/12 05:45:25;;;;;;;;;;;;;;;28.87;39.64;94050.41;5027084;28;9201;-62
2023/09/12 05:47:53;;;;;;;;;;;;;;;28.84;39.12;94052.22;5028397;28;7003;-63
2023/09/12 05:50:23;;;;;;;;;;;;;;;28.86;39.03;94046.88;5015878;28;7245;-63
2023/09/12 05:52:55;;;;;;;;;;;;;;;28.85;38.89;94050.94;5022075;28;7267;-63
2023/09/12 05:55:21;;;;;;;;;;;;;;;28.85;39.65;94045.41;4991605;28;7237;-63
2023/09/12 05:57:54;;;;;;;;;;;;;;;28.85;39.39;94050.19;5012755;28;7017;-63
2023/09/12 06:00:28;;;;;;;;;;;;;;;28.82;40.05;94038.19;5017646;28;7181;-63
2023/09/12 06:02:55;;;;;;;;;;;;;;;28.80;39.48;94037.22;5011268;28;7236;-63
2023/09/12 06:05:32;;;;;;;;;;;;;;;28.81;39.46;94044.25;5020378;28;9455;-62
2023/09/12 06:08:01;;;;;;;;;;;;;;;28.80;40.15;94046.28;5032592;28;8818;-63
2023/09/12 06:10:27;;;;;;;;;;;;;;;28.81;39.86;94053.31;5021202;28;8807;-63
2023/09/12 06:12:53;;;;;;;;;;;;;;;28.80;39.44;94053.84;5029665;28;7124;-63
2023/09/12 06:15:22;;;;;;;;;;;;;;;28.82;40.01;94054.78;5022823;28;8615;-63
2023/09/12 06:17:49;;;;;;;;;;;;;;;28.82;39.77;94054.78;5018954;28;9215;-62
2023/09/12 06:20:16;;;;;;;;;;;;;;;28.81;40.40;94067.16;5016069;28;7178;-63
2023/09/12 06:22:45;;;;;;;;;;;;;;;28.81;40.63;94064.41;5032589;28;6986;-62
2023/09/12 06:25:14;;;;;;;;;;;;;;;28.80;39.63;94056.59;5026814;28;8789;-63
2023/09/12 06:27:40;;;;;;;;;;;;;;;28.74;39.36;94056.00;5025472;28;7179;-63
2023/09/12 06:30:06;;;;;;;;;;;;;;;28.75;40.27;94060.28;5031913;28;6981;-63
2023/09/12 06:32:36;;;;;;;;;;;;;;;28.70;40.31;94050.81;5018348;28;8404;-63
2023/09/12 06:35:10;;;;;;;;;;;;;;;28.76;40.46;94050.66;5016860;28;6976;-63
2023/09/12 06:37:39;;;;;;;;;;;;;;;28.74;39.66;94053.25;5010485;28;7189;-64
2023/09/12 06:40:09;;;;;;;;;;;;;;;28.74;39.45;94048.44;5044091;28;7178;-63
2023/09/12 06:42:44;;;;;;;;;;;;;;;28.77;39.88;94049.41;5015523;28;6977;-64
2023/09/12 06:45:12;;;;;;;;;;;;;;;28.76;39.72;94045.88;5024747;28;7380;-63
2023/09/12 06:47:45;;;;;;;;;;;;;;;28.75;40.16;94040.91;5024914;28;8178;-63
2023/09/12 06:50:15;;;;;;;;;;;;;;;28.73;39.78;94041.41;5019633;28;7070;-63
2023/09/12 06:52:43;;;;;;;;;;;;;;;28.70;40.11;94048.06;5033732;28;7118;-63
2023/09/12 06:55:10;;;;;;;;;;;;;;;28.70;40.81;94048.06;5012536;28;9373;-63
2023/09/12 06:57:37;;;;;;;;;;;;;;;28.69;40.57;94049.31;5013610;28;7032;-63
2023/09/12 07:00:07;;;;;;;;;;;;;;;28.68;40.05;94047.84;5033080;28;7960;-63
2023/09/12 07:02:33;;;;;;;;;;;;;;;28.65;40.72;94046.16;5017704;28;7213;-64
2023/09/12 07:05:01;;;;;;;;;;;;;;;28.66;40.16;94047.66;5015283;28;6965;-64
2023/09/12 07:07:27;;;;;;;;;;;;;;;28.68;40.53;94053.38;5017190;28;9296;-63
2023/09/12 07:09:54;;;;;;;;;;;;;;;28.68;41.21;94056.16;5023747;28;7023;-64
2023/09/12 07:12:20;;;;;;;;;;;;;;;28.71;40.76;94062.63;5019287;28;7059;-63
2023/09/12 07:14:50;;;;;;;;;;;;;;;28.73;40.77;94063.56;5010169;28;7270;-62
2023/09/12 07:17:21;;;;;;;;;;;;;;;28.70;42.30;94059.13;5026457;28;6980;-62
2023/09/12 07:19:51;;;;;;;;;;;;;;;28.70;41.33;94064.66;5011231;28;7238;-62
2023/09/12 07:22:19;;;;;;;;;;;;;;;28.69;42.02;94063.16;5012978;28;7093;-62
2023/09/12 07:24:45;;;;;;;;;;;;;;;28.70;42.04;94067.44;5026715;28;7278;-63
2023/09/12 07:27:11;;;;;;;;;;;;;;;28.71;41.92;94059.88;5011868;28;8820;-63
2023/09/12 07:29:38;;;;;;;;;;;;;;;28.70;41.80;94067.44;5013283;28;7309;-63
2023/09/12 07:32:06;;;;;;;;;;;;;;;28.70;42.37;94061.88;5011501;28;7632;-63
2023/09/12 07:34:38;;;;;;;;;;;;;;;28.68;42.89;94067.22;5019303;28;7216;-63
2023/09/12 07:37:23;;;;;;;;;;;;;;;28.67;42.53;94065.72;5018867;28;7418;-63
2023/09/12 07:39:55;;;;;;;;;;;;;;;28.70;42.80;94069.44;5030914;28;7537;-62
2023/09/12 07:42:23;;;;;;;;;;;;;;;28.70;42.05;94070.19;5011548;28;9087;-63
2023/09/12 07:44:59;;;;;;;;;;;;;;;28.67;42.27;94071.25;5035133;28;9077;-63
2023/09/12 07:47:25;;;;;;;;;;;;;;;28.67;42.43;94068.50;5021188;28;6986;-63
2023/09/12 07:50:06;;;;;;;;;;;;;;;28.69;42.52;94067.94;4997241;28;7081;-63
2023/09/12 07:52:32;;;;;;;;;;;;;;;28.69;41.97;94068.69;5010534;28;7232;-63
2023/09/12 07:55:08;;;;;;;;;;;;;;;28.69;42.35;94068.69;5030831;28;7003;-63
2023/09/12 07:57:40;;;;;;;;;;;;;;;28.70;42.56;94080.50;5016333;28;7286;-63
2023/09/12 08:00:10;;;;;;;;;;;;;;;28.67;42.36;94076.03;5032297;28;7224;-63
2023/09/12 08:02:47;;;;;;;;;;;;;;;28.69;42.74;94079.00;5032881;28;7142;-62
2023/09/12 08:05:14;;;;;;;;;;;;;;;28.70;42.99;94083.28;5013605;28;8658;-62
2023/09/12 08:08:02;;;;;;;;;;;;;;;28.70;42.66;94075.72;5032133;28;7402;-62
2023/09/12 08:10:38;;;;;;;;;;;;;;;28.70;43.22;94084.03;5031263;28;7153;-63
2023/09/12 08:13:06;;;;;;;;;;;;;;;28.73;43.04;94082.94;5035675;28;7223;-63
2023/09/12 08:15:50;;;;;;;;;;;;;;;28.74;42.63;94081.66;5025571;28;9189;-62
2023/09/12 08:18:19;;;;;;;;;;;;;;;28.74;42.67;94087.19;5028790;28;7240;-63
2023/09/12 08:20:58;;;;;;;;;;;;;;;28.71;42.47;94085.50;5032391;28;7234;-62
2023/09/12 08:23:32;;;;;;;;;;;;;;;28.76;43.61;94084.63;5022218;28;7555;-63
2023/09/12 08:26:07;;;;;;;;;;;;;;;28.76;43.36;94079.09;5036564;28;7462;-63
2023/09/12 08:29:01;;;;;;;;;;;;;;;28.76;42.46;94084.63;5020174;28;9466;-63
2023/09/12 08:31:47;;;;;;;;;;;;;;;28.74;42.21;94076.13;4986809;28;7579;-63
2023/09/12 08:34:33;;;;;;;;;;;;;;;28.81;42.28;94077.47;4983059;28;7240;-63
2023/09/12 08:37:08;;;;;;;;;;;;;;;28.80;41.91;94067.69;4989411;28;7065;-62
2023/09/12 08:39:57;;;;;;;;;;;;;;;28.79;41.51;94069.72;4971943;28;7233;-62
2023/09/12 08:42:28;;;;;;;;;;;;;;;28.77;41.39;94064.00;4960717;28;7259;-62
2023/09/12 08:45:07;;;;;;;;;;;;;;;28.81;39.50;94069.94;4982050;28;7230;-60
2023/09/12 08:47:50;;;;;;;;;;;;;;;28.79;39.76;94069.72;4986392;28;7002;-61
2023/09/12 08:50:33;;;;;;;;;;;;;;;28.87;40.04;94073.31;4971427;28;9138;-61
2023/09/12 08:53:03;;;;;;;;;;;;;;;28.88;39.18;94074.78;4986238;28;7190;-61
2023/09/12 08:55:31;;;;;;;;;;;;;;;28.91;39.49;94068.16;4989146;28;8714;-60
2023/09/12 08:58:06;;;;;;;;;;;;;;;28.94;38.48;94066.34;4982094;28;7271;-60
2023/09/12 09:00:45;;;;;;;;;;;;;;;28.95;39.01;94062.28;4966890;28;7292;-61
2023/09/12 09:03:41;;;;;;;;;;;;;;;28.98;38.93;94061.19;4969135;28;7230;-61
2023/09/12 09:06:37;;;;;;;;;;;;;;;29.01;38.44;94066.41;4986303;28;9110;-61
2023/09/12 09:09:24;;;;;;;;;;;;;;;29.00;36.94;94070.47;5023748;28;9343;-61
2023/09/12 09:11:52;;;;;;;;;;;;;;;29.03;36.71;94071.41;5028646;28;7441;-61
2023/09/12 09:14:29;;;;;;;;;;;;;;;29.08;36.84;94064.97;5011913;28;7193;-61
2023/09/12 09:17:05;;;;;;;;;;;;;;;29.10;36.88;94065.91;5023619;28;7285;-61
2023/09/12 09:19:45;;;;;;;;;;;;;;;29.08;37.16;94062.19;5037018;28;8469;-60
2023/09/12 09:22:18;;;;;;;;;;;;;;;29.07;36.92;94058.72;5028047;28;9464;-61
2023/09/12 09:24:48;;;;;;;;;;;;;;;29.13;39.03;94055.78;5014304;28;8955;-61
2023/09/12 09:27:40;;;;;;;;;;;;;;;29.21;40.22;94053.13;5016312;28;6998;-60
2023/09/12 09:30:56;;;;;;;;;;;;;;;29.26;42.53;94058.50;4949599;28;7057;-61
2023/09/12 09:33:35;;;;;;;;;;;;;;;29.27;40.41;94059.25;4954088;28;7208;-61
2023/09/12 09:36:07;;;;;;;;;;;;;;;29.26;41.04;94052.22;4969563;28;6976;-61
2023/09/12 09:38:54;;;;;;;;;;;;;;;29.25;41.68;94059.06;4958228;28;8574;-61
2023/09/12 09:41:32;;;;;;;;;;;;;;;29.29;41.38;94056.66;4970172;28;9082;-61
2023/09/12 09:44:00;;;;;;;;;;;;;;;29.26;42.11;94052.22;4971231;28;7316;-61
2023/09/12 09:46:26;;;;;;;;;;;;;;;29.27;41.65;94048.16;4973512;28;6996;-61
2023/09/12 09:49:00;;;;;;;;;;;;;;;29.31;41.98;94049.31;4953893;28;6961;-61
2023/09/12 09:51:26;;;;;;;;;;;;;;;29.32;40.58;94053.53;4956369;28;9343;-61
2023/09/12 09:54:11;;;;;;;;;;;;;;;29.32;41.78;94050.06;4968891;28;7311;-61
2023/09/12 09:56:54;;;;;;;;;;;;;;;29.33;41.01;94043.22;4956394;28;8502;-56
2023/09/12 09:59:42;;;;;;;;;;;;;;;29.34;40.66;94045.44;4948822;28;9098;-56
2023/09/12 10:02:25;;;;;;;;;;;;;;;29.33;40.83;94051.53;4966450;28;7341;-55
2023/09/12 10:04:54;;;;;;;;;;;;;;;29.34;40.87;94042.66;4954693;28;7273;-55
2023/09/12 10:07:29;;;;;;;;;;;;;;;29.36;40.86;94044.91;5009206;28;7131;-55
2023/09/12 10:10:00;;;;;;;;;;;;;;;29.34;41.65;94036.41;5030138;28;9297;-56
2023/09/12 10:12:49;;;;;;;;;;;;;;;29.35;41.20;94037.88;5035894;28;8865;-55
2023/09/12 10:15:22;;;;;;;;;;;;;;;29.36;42.07;94039.38;5014709;28;7265;-55
2023/09/12 10:17:56;;;;;;;;;;;;;;;29.33;42.16;94040.44;5019855;28;6990;-55
2023/09/12 10:20:45;;;;;;;;;;;;;;;29.37;41.50;94036.03;5030744;28;7312;-55
2023/09/12 10:23:59;;;;;;;;;;;;;;;29.37;42.34;94038.06;5029570;28;7196;-55
2023/09/12 10:26:26;;;;;;;;;;;;;;;29.36;42.07;94028.28;5027238;28;7219;-55
2023/09/12 10:29:02;;;;;;;;;;;;;;;29.37;42.07;94035.28;5015705;28;6988;-55
2023/09/12 10:31:31;;;;;;;;;;;;;;;29.38;42.29;94037.53;5032152;28;7205;-55
2023/09/12 10:34:02;;;;;;;;;;;;;;;29.41;41.67;94038.47;5008149;28;7181;-55
2023/09/12 10:36:31;;;;;;;;;;;;;;;29.41;41.42;94039.22;5036845;28;7053;-55
2023/09/12 10:39:04;;;;;;;;;;;;;;;29.41;42.20;94032.91;5035052;28;8685;-56
2023/09/12 10:41:33;;;;;;;;;;;;;;;29.44;41.57;94034.59;5029088;28;7228;-55
2023/09/12 10:44:09;;;;;;;;;;;;;;;29.45;41.80;94027.78;5031465;28;7259;-55
2023/09/12 10:46:43;;;;;;;;;;;;;;;29.41;41.20;94030.16;5031590;28;7274;-56
2023/09/12 10:49:18;;;;;;;;;;;;;;;29.44;40.84;94023.53;5022421;28;6970;-55
2023/09/12 10:52:23;;;;;;;;;;;;;;;29.46;41.95;94026.50;5024499;28;7329;-55
2023/09/12 10:54:50;;;;;;;;;;;;;;;29.47;41.28;94025.22;5022318;28;7225;-55
2023/09/12 10:57:28;;;;;;;;;;;;;;;29.46;41.34;94020.94;5028095;28;7296;-56
2023/09/12 11:00:08;;;;;;;;;;;;;;;29.44;40.71;94020.75;5025792;28;9169;-56
2023/09/12 11:02:38;;;;;;;;;;;;;;;29.46;41.20;94009.88;5017469;28;7240;-56
2023/09/12 11:05:07;;;;;;;;;;;;;;;29.48;39.84;94001.75;5030404;28;7318;-60
2023/09/12 11:07:40;;;;;;;;;;;;;;;29.49;40.11;94003.25;5031384;28;7255;-60
2023/09/12 11:10:15;;;;;;;;;;;;;;;29.54;40.34;94005.09;5026700;28;9549;-60
2023/09/12 11:12:48;;;;;;;;;;;;;;;29.58;40.60;94005.50;5022576;28;7384;-60
2023/09/12 11:15:25;;;;;;;;;;;;;;;29.57;40.53;94001.25;5009121;28;7223;-60
2023/09/12 11:18:04;;;;;;;;;;;;;;;29.56;40.47;93996.97;5017379;28;7442;-60
2023/09/12 11:21:07;;;;;;;;;;;;;;;29.58;40.98;94000.69;5028302;28;6987;-60
2023/09/12 11:23:35;;;;;;;;;;;;;;;29.59;40.05;93995.91;5023491;28;7388;-60
2023/09/12 11:26:18;;;;;;;;;;;;;;;29.59;40.87;94001.44;5033243;28;7294;-60
2023/09/12 11:28:50;;;;;;;;;;;;;;;29.57;40.45;93990.16;5030365;28;6998;-61
2023/09/12 11:31:29;;;;;;;;;;;;;;;29.58;40.61;93988.88;5014265;28;7222;-60
2023/09/12 11:34:00;;;;;;;;;;;;;;;29.59;40.07;93988.31;5028362;28;7269;-60
2023/09/12 11:36:26;;;;;;;;;;;;;;;29.60;40.45;93984.25;5031157;28;8960;-61
2023/09/12 11:39:24;;;;;;;;;;;;;;;29.61;40.91;93987.78;5036194;28;7361;-60
2023/09/12 11:42:01;;;;;;;;;;;;;;;29.62;41.24;93986.50;5029031;28;7212;-60
2023/09/12 11:44:38;;;;;;;;;;;;;;;29.63;40.48;93987.97;5026766;28;7321;-61
2023/09/12 11:47:06;;;;;;;;;;;;;;;29.63;40.40;93982.41;5018227;28;7364;-61
2023/09/12 11:49:42;;;;;;;;;;;;;;;29.60;41.26;93980.75;5036145;28;7194;-61
2023/09/12 11:52:16;;;;;;;;;;;;;;;29.61;40.59;93982.97;5009445;28;7234;-60
2023/09/12 11:54:43;;;;;;;;;;;;;;;29.61;41.10;93976.69;5038168;28;8726;-60
2023/09/12 11:57:13;;;;;;;;;;;;;;;29.62;41.51;93980.94;5030471;28;7248;-60
2023/09/12 11:59:43;;;;;;;;;;;;;;;29.66;41.61;93984.09;5011906;28;8844;-60
2023/09/12 12:02:11;;;;;;;;;;;;;;;29.67;41.91;93968.94;5012448;28;6983;-61
2023/09/12 12:04:37;;;;;;;;;;;;;;;29.69;41.22;93978.19;5025772;28;6980;-60
2023/09/12 12:07:04;;;;;;;;;;;;;;;29.72;40.73;93981.91;5032225;28;7273;-60
2023/09/12 12:09:38;;;;;;;;;;;;;;;29.74;41.08;93977.34;5028318;28;6969;-60
2023/09/12 12:12:15;;;;;;;;;;;;;;;29.75;41.98;93976.03;5015279;28;7206;-60
2023/09/12 12:14:44;;;;;;;;;;;;;;;29.76;41.68;93980.31;5014616;28;7409;-63
2023/09/12 12:17:11;;;;;;;;;;;;;;;29.78;40.91;93974.19;5028349;28;7005;-64
2023/09/12 12:19:39;;;;;;;;;;;;;;;29.78;41.14;93963.84;5014777;28;7239;-64
2023/09/12 12:22:25;;;;;;;;;;;;;;;29.81;42.00;93962.03;5012167;28;7058;-64
2023/09/12 12:25:35;;;;;;;;;;;;;;;29.83;40.99;93959.44;5007099;28;7356;-64
2023/09/12 12:28:04;;;;;;;;;;;;;;;29.86;41.94;93961.13;5025502;28;7211;-64
2023/09/12 12:30:36;;;;;;;;;;;;;;;29.87;41.53;93954.28;5017865;28;8819;-63
2023/09/12 12:33:11;;;;;;;;;;;;;;;29.87;41.72;93950.75;5022114;28;7231;-63
2023/09/12 12:35:48;;;;;;;;;;;;;;;29.87;42.37;93957.03;5034853;28;7222;-63
2023/09/12 12:38:17;;;;;;;;;;;;;;;29.88;42.17;93966.09;5009864;28;9155;-63
2023/09/12 12:40:55;;;;;;;;;;;;;;;29.84;42.12;93965.72;5012443;28;7254;-62
2023/09/12 12:43:31;;;;;;;;;;;;;;;29.86;41.35;93974.25;5011143;28;7232;-62
2023/09/12 12:46:12;;;;;;;;;;;;;;;29.83;42.44;93975.31;5035597;28;7399;-62
2023/09/12 12:48:55;;;;;;;;;;;;;;;29.84;42.00;93985.84;5020415;28;7243;-63
2023/09/12 12:51:24;;;;;;;;;;;;;;;29.82;42.72;93973.84;5029540;28;9090;-63
2023/09/12 12:53:52;;;;;;;;;;;;;;;29.81;42.60;93984.19;5030399;28;7361;-62
2023/09/12 12:56:23;;;;;;;;;;;;;;;29.82;42.27;93982.91;5008310;28;6975;-62
2023/09/12 12:59:06;;;;;;;;;;;;;;;29.80;42.20;93982.69;5015309;28;9175;-63
2023/09/12 13:01:38;;;;;;;;;;;;;;;29.80;41.59;93989.00;5013789;28;7255;-63
2023/09/12 13:04:09;;;;;;;;;;;;;;;29.82;42.64;94004.34;5022063;28;7287;-63
2023/09/12 13:07:05;;;;;;;;;;;;;;;29.80;41.95;94027.06;5032935;28;6985;-63
2023/09/12 13:09:33;;;;;;;;;;;;;;;29.79;42.03;94025.59;5018108;28;7173;-63
2023/09/12 13:11:59;;;;;;;;;;;;;;;29.80;42.17;94038.91;5011452;28;7191;-62
2023/09/12 13:15:04;;;;;;;;;;;;;;;29.83;41.67;94056.47;5024883;28;8135;-63
2023/09/12 13:18:13;;;;;;;;;;;;;;;29.82;41.74;94063.28;4994316;28;7234;-63
2023/09/12 13:20:39;;;;;;;;;;;;;;;29.80;41.83;94054.78;5014610;28;8871;-62
2023/09/12 13:23:05;;;;;;;;;;;;;;;29.82;42.13;94063.28;5010368;28;6979;-63
2023/09/12 13:25:39;;;;;;;;;;;;;;;29.81;42.74;94070.16;5009350;28;7232;-59
2023/09/12 13:28:25;;;;;;;;;;;;;;;29.81;41.88;94078.47;4996410;28;7361;-59
2023/09/12 13:31:03;;;;;;;;;;;;;;;29.81;41.57;94075.69;4998281;28;9055;-60
2023/09/12 13:33:53;;;;;;;;;;;;;;;29.83;41.76;94075.88;5006099;28;7138;-60
2023/09/12 13:36:40;;;;;;;;;;;;;;;29.83;42.19;94084.19;5012767;28;7182;-60
2023/09/12 13:39:07;;;;;;;;;;;;;;;29.83;41.93;94078.66;5007841;28;7288;-60
2023/09/12 13:41:34;;;;;;;;;;;;;;;29.83;41.30;94081.44;4999487;28;6998;-60
2023/09/12 13:44:17;;;;;;;;;;;;;;;29.80;41.65;94063.84;5012486;28;7966;-60
2023/09/12 13:46:58;;;;;;;;;;;;;;;29.83;41.35;94064.78;4999325;28;9236;-60